createdAt,value
2022-10-07T00:00:52.786Z,29.35
2022-10-07T00:03:22.342Z,29.30
2022-10-07T00:06:00.804Z,29.70
2022-10-07T00:08:27.810Z,28.40
2022-10-07T00:10:55.361Z,29.10
2022-10-07T00:13:23.604Z,31.08
2022-10-07T00:15:50.489Z,23.42
2022-10-07T00:18:17.162Z,33.65
2022-10-07T00:20:44.086Z,37.13
2022-10-07T00:23:10.973Z,31.55
2022-10-07T00:25:37.968Z,30.38
2022-10-07T00:28:05.621Z,24.42
2022-10-07T00:30:32.885Z,25.88
2022-10-07T00:33:00.114Z,27.85
2022-10-07T00:35:27.029Z,27.50
2022-10-07T00:37:54.088Z,26.63
2022-10-07T00:40:20.916Z,31.90
2022-10-07T00:42:47.784Z,21.25
2022-10-07T00:45:16.683Z,26.27
2022-10-07T00:47:47.440Z,31.27
2022-10-07T00:50:19.375Z,39.08
2022-10-07T00:52:51.871Z,28.98
2022-10-07T00:55:23.530Z,29.60
2022-10-07T00:57:53.329Z,33.60
2022-10-07T01:00:23.671Z,27.52
2022-10-07T01:02:51.388Z,35.55
2022-10-07T01:05:18.567Z,24.67
2022-10-07T01:07:47.792Z,29.58
2022-10-07T01:10:20.233Z,26.58
2022-10-07T01:13:14.623Z,29.45
2022-10-07T01:15:53.526Z,26.15
2022-10-07T01:18:39.877Z,26.20
2022-10-07T01:21:16.739Z,32.35
2022-10-07T01:24:01.459Z,25.67
2022-10-07T01:26:55.595Z,26.83
2022-10-07T01:29:31.442Z,28.42
2022-10-07T01:32:13.141Z,21.70
2022-10-07T01:34:43.212Z,21.77
2022-10-07T01:37:12.636Z,32.15
2022-10-07T01:39:45.742Z,26.40
2022-10-07T01:42:12.652Z,35.13
2022-10-07T01:44:40.443Z,31.70
2022-10-07T01:47:07.554Z,30.50
2022-10-07T01:49:34.615Z,25.63
2022-10-07T01:52:17.789Z,25.10
2022-10-07T01:55:21.770Z,24.77
2022-10-07T01:58:07.182Z,25.80
2022-10-07T02:00:38.473Z,29.83
2022-10-07T02:03:24.126Z,28.23
2022-10-07T02:05:54.574Z,32.05
2022-10-07T02:08:42.514Z,29.05
2022-10-07T02:11:29.307Z,26.92
2022-10-07T02:14:02.268Z,28.20
2022-10-07T02:16:33.487Z,25.80
2022-10-07T02:19:04.508Z,33.22
2022-10-07T02:21:36.018Z,22.92
2022-10-07T02:24:04.420Z,27.30
2022-10-07T02:26:34.280Z,23.73
2022-10-07T02:29:05.248Z,27.52
2022-10-07T02:31:34.858Z,28.98
2022-10-07T02:34:05.835Z,32.75
2022-10-07T02:36:36.141Z,33.03
2022-10-07T02:39:03.899Z,37.20
2022-10-07T02:41:36.624Z,23.42
2022-10-07T02:44:46.638Z,30.73
2022-10-07T02:47:37.624Z,30.48
2022-10-07T02:50:11.133Z,25.60
2022-10-07T02:52:41.293Z,29.67
2022-10-07T02:55:10.631Z,23.33
2022-10-07T02:57:46.598Z,33.00
2022-10-07T03:00:14.411Z,27.23
2022-10-07T03:02:44.606Z,25.63
2022-10-07T03:05:12.805Z,19.23
2022-10-07T03:07:39.883Z,32.50
2022-10-07T03:10:09.350Z,26.25
2022-10-07T03:12:36.063Z,31.17
2022-10-07T03:15:03.138Z,21.40
2022-10-07T03:17:30.003Z,31.63
2022-10-07T03:19:56.759Z,28.42
2022-10-07T03:22:23.432Z,30.10
2022-10-07T03:24:50.231Z,23.60
2022-10-07T03:27:17.139Z,23.10
2022-10-07T03:29:44.056Z,28.15
2022-10-07T03:32:11.319Z,25.35
2022-10-07T03:34:38.573Z,25.27
2022-10-07T03:37:05.463Z,25.27
2022-10-07T03:39:32.396Z,26.10
2022-10-07T03:41:59.128Z,29.83
2022-10-07T03:44:25.991Z,21.52
2022-10-07T03:46:53.218Z,25.20
2022-10-07T03:49:20.462Z,22.80
2022-10-07T03:51:47.835Z,23.52
2022-10-07T03:54:14.847Z,27.63
2022-10-07T03:56:41.650Z,27.98
2022-10-07T03:59:08.509Z,24.73
2022-10-07T04:01:36.286Z,30.13
2022-10-07T04:04:03.171Z,29.13
2022-10-07T04:06:31.399Z,27.13
2022-10-07T04:08:58.335Z,32.97
2022-10-07T04:11:25.503Z,26.10
2022-10-07T04:13:52.815Z,26.80
2022-10-07T04:16:20.125Z,27.92
2022-10-07T04:18:47.504Z,27.73
2022-10-07T04:21:14.425Z,20.88
2022-10-07T04:23:42.485Z,29.70
2022-10-07T04:26:11.707Z,28.92
2022-10-07T04:28:39.258Z,28.02
2022-10-07T04:31:08.990Z,23.88
2022-10-07T04:33:40.289Z,21.42
2022-10-07T04:36:10.607Z,20.60
2022-10-07T04:38:37.459Z,24.50
2022-10-07T04:41:07.027Z,34.08
2022-10-07T04:43:34.455Z,20.85
2022-10-07T04:46:09.768Z,23.83
2022-10-07T04:48:36.746Z,24.95
2022-10-07T04:51:06.455Z,29.40
2022-10-07T04:53:33.963Z,23.55
2022-10-07T04:56:01.249Z,25.50
2022-10-07T04:58:28.807Z,23.42
2022-10-07T05:00:56.893Z,22.08
2022-10-07T05:03:26.010Z,25.10
2022-10-07T05:05:55.614Z,24.27
2022-10-07T05:08:27.295Z,25.08
2022-10-07T05:10:56.025Z,21.15
2022-10-07T05:13:26.314Z,18.10
2022-10-07T05:15:58.645Z,28.40
2022-10-07T05:18:27.254Z,26.33
2022-10-07T05:20:54.234Z,18.25
2022-10-07T05:23:27.865Z,24.95
2022-10-07T05:26:00.301Z,25.33
2022-10-07T05:32:36.830Z,18.20
2022-10-07T05:36:03.602Z,25.92
2022-10-07T05:38:31.608Z,23.17
2022-10-07T05:41:04.258Z,27.00
2022-10-07T05:43:33.554Z,32.05
2022-10-07T05:46:05.653Z,34.65
2022-10-07T05:48:38.734Z,33.05
2022-10-07T05:51:09.727Z,23.92
2022-10-07T05:53:36.489Z,21.40
2022-10-07T05:56:07.649Z,32.78
2022-10-07T05:58:38.946Z,22.58
2022-10-07T06:01:13.789Z,27.13
2022-10-07T06:06:09.160Z,26.17
2022-10-07T06:08:36.822Z,23.90
2022-10-07T06:11:23.879Z,21.77
2022-10-07T06:13:54.839Z,27.33
2022-10-07T06:16:23.420Z,27.55
2022-10-07T06:18:52.628Z,23.92
2022-10-07T06:21:28.333Z,31.73
2022-10-07T06:23:56.978Z,29.45
2022-10-07T06:26:24.286Z,19.48
2022-10-07T06:28:51.140Z,27.75
2022-10-07T06:31:22.804Z,29.20
2022-10-07T06:33:50.155Z,29.00
2022-10-07T06:36:17.872Z,22.35
2022-10-07T06:38:46.115Z,25.23
2022-10-07T06:41:13.300Z,27.00
2022-10-07T06:43:40.311Z,33.00
2022-10-07T06:46:10.259Z,37.70
2022-10-07T06:48:40.621Z,24.25
2022-10-07T06:51:13.873Z,26.02
2022-10-07T06:53:40.851Z,25.23
2022-10-07T06:56:09.061Z,31.50
2022-10-07T06:58:35.967Z,21.27
2022-10-07T07:01:03.284Z,25.70
2022-10-07T07:03:30.465Z,30.73
2022-10-07T07:05:57.589Z,28.10
2022-10-07T07:08:32.150Z,27.42
2022-10-07T07:11:04.403Z,21.70
2022-10-07T07:13:31.227Z,29.98
2022-10-07T07:16:00.308Z,19.88
2022-10-07T07:18:27.037Z,19.95
2022-10-07T07:20:53.635Z,21.90
2022-10-07T07:23:20.520Z,25.63
2022-10-07T07:25:49.822Z,20.58
2022-10-07T07:28:16.738Z,22.67
2022-10-07T07:30:43.730Z,21.27
2022-10-07T07:33:10.609Z,22.92
2022-10-07T07:35:41.625Z,18.60
2022-10-07T07:38:09.508Z,26.30
2022-10-07T07:40:38.691Z,24.05
2022-10-07T07:43:06.607Z,26.27
2022-10-07T07:45:36.943Z,19.67
2022-10-07T07:48:04.807Z,23.83
2022-10-07T07:50:31.564Z,23.27
2022-10-07T07:53:00.342Z,20.75
2022-10-07T07:55:27.214Z,23.90
2022-10-07T07:57:54.153Z,19.95
2022-10-07T08:00:21.120Z,18.95
2022-10-07T08:02:48.023Z,23.98
2022-10-07T08:05:14.915Z,18.50
2022-10-07T08:07:41.660Z,26.15
2022-10-07T08:10:08.966Z,23.38
2022-10-07T08:12:35.792Z,21.50
2022-10-07T08:15:02.599Z,22.15
2022-10-07T08:17:29.367Z,18.67
2022-10-07T08:19:56.394Z,23.00
2022-10-07T08:22:23.190Z,28.38
2022-10-07T08:24:50.024Z,20.15
2022-10-07T08:27:16.909Z,21.23
2022-10-07T08:29:43.683Z,20.42
2022-10-07T08:32:10.768Z,23.65
2022-10-07T08:34:37.591Z,33.05
2022-10-07T08:37:04.464Z,18.90
2022-10-07T08:39:31.397Z,26.13
2022-10-07T08:42:13.652Z,12.70
2022-10-07T08:44:44.294Z,25.00
2022-10-07T08:47:34.841Z,18.25
2022-10-07T08:50:26.187Z,19.40
2022-10-07T08:52:59.495Z,13.02
2022-10-07T08:55:43.938Z,16.67
2022-10-07T08:58:41.127Z,18.60
2022-10-07T09:01:26.852Z,17.33
2022-10-07T09:04:06.427Z,13.13
2022-10-07T09:06:43.058Z,19.25
2022-10-07T09:09:22.179Z,27.95
2022-10-07T09:11:50.282Z,20.92
2022-10-07T09:14:34.638Z,22.52
2022-10-07T09:17:08.482Z,13.27
2022-10-07T09:19:45.959Z,15.30
2022-10-07T09:22:31.504Z,16.58
2022-10-07T09:25:13.932Z,17.55
2022-10-07T09:27:40.751Z,14.25
2022-10-07T09:30:12.448Z,19.40
2022-10-07T09:32:42.695Z,17.02
2022-10-07T09:35:18.349Z,16.45
2022-10-07T09:37:58.158Z,21.80
2022-10-07T09:40:35.746Z,13.75
2022-10-07T09:43:11.001Z,16.95
2022-10-07T09:48:07.853Z,15.00
2022-10-07T09:50:41.604Z,17.02
2022-10-07T09:53:24.986Z,15.43
2022-10-07T09:55:54.401Z,16.95
2022-10-07T09:58:26.461Z,21.90
2022-10-07T10:00:55.968Z,15.85
2022-10-07T10:03:33.401Z,19.80
2022-10-07T10:06:02.848Z,22.60
2022-10-07T10:08:34.424Z,21.42
2022-10-07T10:11:05.119Z,12.88
2022-10-07T10:13:36.376Z,12.98
2022-10-07T10:16:07.145Z,13.77
2022-10-07T10:18:38.783Z,16.63
2022-10-07T10:21:19.957Z,14.02
2022-10-07T10:23:49.601Z,6.90
2022-10-07T10:26:43.699Z,12.25
2022-10-07T10:29:46.804Z,17.10
2022-10-07T10:32:49.660Z,15.57
2022-10-07T10:35:31.243Z,13.60
2022-10-07T10:38:27.743Z,12.63
2022-10-07T10:41:00.422Z,13.18
2022-10-07T10:43:47.855Z,16.02
2022-10-07T10:46:34.897Z,10.75
2022-10-07T10:49:19.942Z,16.08
2022-10-07T10:52:18.358Z,8.95
2022-10-07T10:55:13.642Z,15.25
2022-10-07T10:57:59.997Z,9.40
2022-10-07T11:00:35.742Z,11.68
2022-10-07T11:03:28.784Z,13.70
2022-10-07T11:05:56.366Z,11.00
2022-10-07T11:08:28.126Z,13.50
2022-10-07T11:10:57.725Z,8.18
2022-10-07T11:13:30.825Z,15.10
2022-10-07T11:16:06.445Z,11.13
2022-10-07T11:18:36.249Z,13.18
2022-10-07T11:21:08.881Z,12.32
2022-10-07T11:23:47.779Z,13.10
2022-10-07T11:26:24.511Z,13.63
2022-10-07T11:28:52.112Z,12.98
2022-10-07T11:31:27.749Z,9.23
2022-10-07T11:33:57.616Z,7.90
2022-10-07T11:36:47.859Z,14.93
2022-10-07T11:39:15.247Z,15.35
2022-10-07T11:41:55.063Z,19.33
2022-10-07T11:44:30.197Z,12.27
2022-10-07T11:49:49.076Z,11.68
2022-10-07T11:52:26.835Z,18.73
2022-10-07T11:55:03.401Z,14.18
2022-10-07T11:57:34.685Z,12.35
2022-10-07T12:00:08.389Z,10.32
2022-10-07T12:02:45.023Z,13.52
2022-10-07T12:05:34.104Z,11.77
2022-10-07T12:08:34.378Z,9.25
2022-10-07T12:11:13.051Z,8.90
2022-10-07T12:13:41.371Z,9.45
2022-10-07T12:16:32.633Z,10.93
2022-10-07T12:19:08.221Z,8.98
2022-10-07T12:22:03.697Z,12.70
2022-10-07T12:24:36.264Z,12.43
2022-10-07T12:27:26.156Z,11.15
2022-10-07T12:30:02.821Z,10.07
2022-10-07T12:32:49.081Z,11.88
2022-10-07T12:35:40.027Z,13.93
2022-10-07T12:38:17.568Z,9.18
2022-10-07T12:41:13.354Z,16.77
2022-10-07T12:43:59.544Z,6.88
2022-10-07T12:46:31.319Z,7.45
2022-10-07T12:49:05.335Z,7.95
2022-10-07T12:51:40.541Z,14.15
2022-10-07T12:54:16.251Z,7.25
2022-10-07T12:56:44.886Z,12.88
2022-10-07T12:59:42.253Z,12.60
2022-10-07T13:02:24.438Z,9.60
2022-10-07T13:04:51.568Z,7.53
2022-10-07T13:07:24.536Z,14.40
2022-10-07T13:10:10.007Z,8.55
2022-10-07T13:12:44.318Z,11.38
2022-10-07T13:15:23.540Z,12.65
2022-10-07T13:18:10.609Z,15.73
2022-10-07T13:20:56.719Z,11.20
2022-10-07T13:25:57.722Z,11.25
2022-10-07T13:28:30.807Z,9.32
2022-10-07T13:31:22.140Z,12.52
2022-10-07T13:33:50.883Z,5.97
2022-10-07T13:36:26.655Z,10.65
2022-10-07T13:39:10.241Z,6.65
2022-10-07T13:41:38.563Z,14.98
2022-10-07T13:44:06.622Z,10.15
2022-10-07T13:46:36.109Z,5.15
2022-10-07T13:49:03.406Z,8.88
2022-10-07T13:51:41.067Z,9.38
2022-10-07T13:54:18.264Z,10.20
2022-10-07T13:56:46.071Z,13.93
2022-10-07T13:59:21.087Z,6.07
2022-10-07T14:01:51.433Z,13.48
2022-10-07T14:04:20.368Z,12.82
2022-10-07T14:06:52.523Z,8.50
2022-10-07T14:09:26.527Z,15.48
2022-10-07T14:11:59.088Z,7.45
2022-10-07T14:14:35.566Z,11.93
2022-10-07T14:17:09.423Z,9.02
2022-10-07T14:19:37.538Z,8.23
2022-10-07T14:22:14.670Z,8.82
2022-10-07T14:24:41.991Z,10.38
2022-10-07T14:27:53.765Z,10.27
2022-10-07T14:30:29.087Z,8.43
2022-10-07T14:33:31.396Z,13.70
2022-10-07T14:36:17.981Z,8.93
2022-10-07T14:38:48.419Z,12.38
2022-10-07T14:41:17.776Z,13.10
2022-10-07T14:43:47.780Z,21.27
2022-10-07T14:46:23.756Z,15.68
2022-10-07T14:48:53.737Z,11.07
2022-10-07T14:51:23.680Z,11.13
2022-10-07T14:53:54.290Z,23.30
2022-10-07T14:56:39.085Z,12.60
2022-10-07T14:59:15.587Z,11.50
2022-10-07T15:01:42.687Z,17.60
2022-10-07T15:04:11.438Z,19.95
2022-10-07T15:06:38.679Z,9.65
2022-10-07T15:09:05.571Z,17.85
2022-10-07T15:11:32.623Z,11.73
2022-10-07T15:13:59.225Z,8.93
2022-10-07T15:16:28.182Z,18.40
2022-10-07T15:18:55.199Z,12.40
2022-10-07T15:21:22.609Z,12.50
2022-10-07T15:23:56.447Z,12.63
2022-10-07T15:26:24.849Z,11.30
2022-10-07T15:28:56.831Z,11.60
2022-10-07T15:31:26.656Z,10.73
2022-10-07T15:33:58.040Z,11.57
2022-10-07T15:36:30.076Z,10.02
2022-10-07T15:39:02.320Z,8.48
2022-10-07T15:41:33.656Z,10.75
2022-10-07T15:44:02.951Z,10.90
2022-10-07T15:46:30.063Z,10.43
2022-10-07T15:48:58.510Z,11.18
2022-10-07T15:51:26.983Z,12.77
2022-10-07T15:53:54.082Z,9.00
2022-10-07T15:56:21.151Z,13.65
2022-10-07T15:58:48.021Z,8.75
2022-10-07T16:01:16.317Z,8.73
2022-10-07T16:03:45.598Z,12.20
2022-10-07T16:06:18.249Z,14.93
2022-10-07T16:08:45.084Z,13.45
2022-10-07T16:11:12.591Z,13.18
2022-10-07T16:13:41.907Z,6.90
2022-10-07T16:16:11.773Z,6.25
2022-10-07T16:18:41.011Z,13.23
2022-10-07T16:21:10.657Z,9.05
2022-10-07T16:23:40.495Z,7.55
2022-10-07T16:26:13.092Z,11.40
2022-10-07T16:29:00.602Z,9.05
2022-10-07T16:31:29.902Z,8.65
2022-10-07T16:33:57.146Z,14.80
2022-10-07T16:36:25.595Z,11.73
2022-10-07T16:38:54.278Z,10.73
2022-10-07T16:41:21.754Z,7.63
2022-10-07T16:43:48.994Z,9.10
2022-10-07T16:46:18.790Z,12.80
2022-10-07T16:48:47.977Z,9.95
2022-10-07T16:51:17.569Z,11.82
2022-10-07T16:53:46.262Z,11.30
2022-10-07T16:56:13.779Z,10.30
2022-10-07T16:58:40.694Z,8.93
2022-10-07T17:01:12.883Z,13.30
2022-10-07T17:03:41.847Z,8.60
2022-10-07T17:06:15.475Z,11.30
2022-10-07T17:08:47.427Z,6.78
2022-10-07T17:11:29.697Z,22.38
2022-10-07T17:13:59.824Z,9.98
2022-10-07T17:16:29.573Z,16.30
2022-10-07T17:18:57.011Z,16.50
2022-10-07T17:21:24.059Z,12.55
2022-10-07T17:23:54.551Z,11.52
2022-10-07T17:26:21.294Z,18.55
2022-10-07T17:28:49.930Z,8.18
2022-10-07T17:31:18.289Z,8.07
2022-10-07T17:33:45.513Z,13.05
2022-10-07T17:36:13.034Z,12.25
2022-10-07T17:38:44.785Z,12.27
2022-10-07T17:41:19.495Z,16.17
2022-10-07T17:43:47.179Z,13.00
2022-10-07T17:46:17.328Z,12.73
2022-10-07T17:48:49.230Z,13.93
2022-10-07T17:51:17.963Z,6.95
2022-10-07T17:53:45.354Z,9.52
2022-10-07T17:56:15.886Z,14.10
2022-10-07T17:58:44.935Z,11.02
2022-10-07T18:01:22.802Z,12.52
2022-10-07T18:03:52.346Z,13.57
2022-10-07T18:06:19.867Z,11.27
2022-10-07T18:08:48.172Z,7.90
2022-10-07T18:11:17.781Z,10.38
2022-10-07T18:14:03.364Z,7.32
2022-10-07T18:16:34.877Z,10.48
2022-10-07T18:19:02.498Z,13.27
2022-10-07T18:21:31.225Z,9.40
2022-10-07T18:23:59.060Z,5.75
2022-10-07T18:26:25.933Z,7.22
2022-10-07T18:28:52.809Z,14.00
2022-10-07T18:31:20.421Z,12.80
2022-10-07T18:33:47.415Z,8.63
2022-10-07T18:36:16.667Z,16.80
2022-10-07T18:38:44.788Z,6.57
2022-10-07T18:41:14.959Z,7.45
2022-10-07T18:43:43.799Z,8.63
2022-10-07T18:46:14.237Z,8.55
2022-10-07T18:48:43.383Z,9.02
2022-10-07T18:51:12.298Z,12.43
2022-10-07T18:53:41.819Z,9.55
2022-10-07T18:56:12.220Z,8.63
2022-10-07T18:58:41.634Z,15.60
2022-10-07T19:01:14.043Z,15.25
2022-10-07T19:03:41.360Z,11.00
2022-10-07T19:06:11.431Z,5.30
2022-10-07T19:08:38.350Z,11.65
2022-10-07T19:11:15.887Z,17.83
2022-10-07T19:13:53.787Z,8.88
2022-10-07T19:16:35.393Z,11.57
2022-10-07T19:19:26.686Z,13.50
2022-10-07T19:21:55.299Z,16.83
2022-10-07T19:24:45.046Z,15.02
2022-10-07T19:27:11.911Z,16.02
2022-10-07T19:29:38.511Z,14.02
2022-10-07T19:32:08.667Z,17.00
2022-10-07T19:34:35.776Z,12.82
2022-10-07T19:37:03.194Z,9.07
2022-10-07T19:39:30.194Z,17.50
2022-10-07T19:41:58.929Z,13.85
2022-10-07T19:44:25.743Z,12.18
2022-10-07T19:46:54.249Z,9.75
2022-10-07T19:49:21.241Z,14.35
2022-10-07T19:51:47.836Z,10.10
2022-10-07T19:54:14.482Z,15.00
2022-10-07T19:56:41.374Z,15.57
2022-10-07T19:59:10.977Z,12.73
2022-10-07T20:01:43.743Z,7.35
2022-10-07T20:04:21.044Z,10.32
2022-10-07T20:06:48.850Z,18.77
2022-10-07T20:09:17.908Z,15.13
2022-10-07T20:11:45.644Z,12.60
2022-10-07T20:14:15.326Z,13.57
2022-10-07T20:16:42.798Z,8.77
2022-10-07T20:19:18.555Z,9.63
2022-10-07T20:21:45.767Z,9.75
2022-10-07T20:24:14.685Z,10.88
2022-10-07T20:26:42.979Z,10.35
2022-10-07T20:29:11.875Z,9.05
2022-10-07T20:31:40.474Z,16.20
2022-10-07T20:34:12.066Z,12.20
2022-10-07T20:36:39.661Z,13.40
2022-10-07T20:39:36.212Z,5.05
2022-10-07T20:42:21.702Z,7.68
2022-10-07T20:44:49.826Z,9.10
2022-10-07T20:47:18.171Z,9.93
2022-10-07T20:49:45.019Z,13.25
2022-10-07T20:52:17.120Z,12.48
2022-10-07T20:54:45.010Z,9.38
2022-10-07T20:57:13.606Z,9.88
2022-10-07T20:59:40.415Z,10.30
2022-10-07T21:02:09.729Z,8.05
2022-10-07T21:04:37.711Z,8.75
2022-10-07T21:07:04.714Z,10.70
2022-10-07T21:09:36.427Z,12.75
2022-10-07T21:12:05.134Z,8.32
2022-10-07T21:14:31.798Z,9.95
2022-10-07T21:16:58.992Z,9.82
2022-10-07T21:19:26.176Z,13.80
2022-10-07T21:21:53.122Z,12.77
2022-10-07T21:24:19.885Z,10.13
2022-10-07T21:26:47.714Z,15.75
2022-10-07T21:29:14.742Z,11.95
2022-10-07T21:31:42.563Z,14.18
2022-10-07T21:34:10.163Z,12.63
2022-10-07T21:36:40.122Z,15.45
2022-10-07T21:39:07.724Z,15.32
2022-10-07T21:41:37.684Z,11.50
2022-10-07T21:44:06.928Z,15.23
2022-10-07T21:46:37.335Z,14.23
2022-10-07T21:49:06.314Z,16.55
2022-10-07T21:51:34.523Z,12.82
2022-10-07T21:54:02.527Z,15.30
2022-10-07T21:56:32.291Z,18.25
2022-10-07T21:59:01.618Z,9.65
2022-10-07T22:01:29.257Z,16.02
2022-10-07T22:03:58.415Z,16.65
2022-10-07T22:06:45.215Z,14.23
2022-10-07T22:09:13.908Z,11.85
2022-10-07T22:11:40.798Z,22.10
2022-10-07T22:14:12.266Z,17.05
2022-10-07T22:16:40.814Z,12.88
2022-10-07T22:19:07.599Z,12.48
2022-10-07T22:21:39.314Z,16.85
2022-10-07T22:24:07.969Z,12.43
2022-10-07T22:26:45.520Z,13.30
2022-10-07T22:29:14.939Z,20.35
2022-10-07T22:31:42.118Z,12.00
2022-10-07T22:34:29.402Z,8.48
2022-10-07T22:36:58.926Z,15.07
2022-10-07T22:39:26.803Z,15.82
2022-10-07T22:41:53.785Z,15.98
2022-10-07T22:44:20.764Z,12.35
2022-10-07T22:46:47.587Z,17.95
2022-10-07T22:49:15.187Z,13.55
2022-10-07T22:51:42.702Z,17.85
2022-10-07T22:54:12.342Z,13.15
2022-10-07T22:56:39.623Z,17.05
2022-10-07T22:59:08.164Z,12.40
2022-10-07T23:01:35.562Z,8.48
2022-10-07T23:04:03.482Z,15.05
2022-10-07T23:06:33.020Z,14.00
2022-10-07T23:09:00.793Z,10.07
2022-10-07T23:11:29.490Z,16.10
2022-10-07T23:13:56.713Z,15.68
2022-10-07T23:16:27.161Z,17.73
2022-10-07T23:18:54.200Z,10.32
2022-10-07T23:21:26.776Z,18.25
2022-10-07T23:24:07.015Z,7.88
2022-10-07T23:26:35.331Z,13.48
2022-10-07T23:29:02.490Z,13.13
2022-10-07T23:31:31.967Z,11.15
2022-10-07T23:34:00.542Z,15.77
2022-10-07T23:36:27.960Z,12.18
2022-10-07T23:38:54.870Z,13.30
2022-10-07T23:41:24.767Z,13.52
2022-10-07T23:43:52.714Z,11.05
2022-10-07T23:46:20.984Z,10.63
2022-10-07T23:48:47.857Z,19.58
2022-10-07T23:51:18.957Z,10.40
2022-10-07T23:53:46.711Z,13.65
2022-10-07T23:56:14.573Z,13.60
2022-10-07T23:58:41.512Z,10.85
